createdAt,value
2022-08-25T00:00:18.098Z,24.69
2022-08-25T00:02:55.531Z,24.69
2022-08-25T00:05:29.458Z,24.68
2022-08-25T00:08:00.327Z,24.68
2022-08-25T00:10:28.583Z,24.69
2022-08-25T00:12:56.300Z,24.69
2022-08-25T00:15:24.312Z,24.68
2022-08-25T00:17:52.289Z,24.67
2022-08-25T00:20:20.164Z,24.68
2022-08-25T00:22:49.942Z,24.68
2022-08-25T00:25:18.277Z,24.67
2022-08-25T00:27:47.535Z,24.66
2022-08-25T00:30:16.780Z,24.67
2022-08-25T00:32:55.043Z,24.66
2022-08-25T00:35:25.471Z,24.66
2022-08-25T00:37:54.703Z,24.66
2022-08-25T00:40:23.546Z,24.66
2022-08-25T00:42:51.405Z,24.66
2022-08-25T00:45:19.396Z,24.64
2022-08-25T00:47:47.191Z,24.65
2022-08-25T00:50:14.985Z,24.65
2022-08-25T00:52:46.188Z,24.65
2022-08-25T00:55:17.201Z,24.64
2022-08-25T00:57:47.496Z,24.64
2022-08-25T01:00:17.302Z,24.64
2022-08-25T01:02:45.093Z,24.64
2022-08-25T01:05:12.999Z,24.63
2022-08-25T01:07:42.310Z,24.62
2022-08-25T01:10:13.532Z,24.63
2022-08-25T01:12:42.746Z,24.62
2022-08-25T01:15:11.332Z,24.62
2022-08-25T01:17:46.496Z,24.61
2022-08-25T01:20:14.790Z,24.62
2022-08-25T01:22:44.210Z,24.61
2022-08-25T01:25:24.386Z,24.61
2022-08-25T01:27:52.211Z,24.61
2022-08-25T01:30:20.188Z,24.61
2022-08-25T01:32:47.939Z,24.61
2022-08-25T01:35:15.961Z,24.61
2022-08-25T01:37:45.147Z,24.60
2022-08-25T01:40:13.789Z,24.59
2022-08-25T01:42:48.237Z,24.59
2022-08-25T01:45:16.370Z,24.60
2022-08-25T01:47:44.123Z,24.59
2022-08-25T01:50:47.109Z,24.59
2022-08-25T01:53:24.247Z,24.58
2022-08-25T01:56:01.791Z,24.58
2022-08-25T01:58:31.357Z,24.59
2022-08-25T02:01:00.118Z,24.58
2022-08-25T02:03:28.749Z,24.57
2022-08-25T02:05:57.412Z,24.58
2022-08-25T02:08:26.563Z,24.58
2022-08-25T02:10:55.636Z,24.58
2022-08-25T02:13:26.891Z,24.58
2022-08-25T02:16:00.667Z,24.57
2022-08-25T02:18:28.903Z,24.57
2022-08-25T02:20:56.654Z,24.57
2022-08-25T02:23:24.355Z,24.57
2022-08-25T02:25:53.793Z,24.56
2022-08-25T02:28:21.505Z,24.56
2022-08-25T02:30:49.290Z,24.56
2022-08-25T02:33:17.105Z,24.57
2022-08-25T02:35:45.074Z,24.56
2022-08-25T02:38:12.839Z,24.56
2022-08-25T02:40:40.670Z,24.55
2022-08-25T02:43:09.755Z,24.55
2022-08-25T02:45:37.749Z,24.57
2022-08-25T02:48:05.723Z,24.54
2022-08-25T02:50:33.578Z,24.55
2022-08-25T02:53:01.376Z,24.55
2022-08-25T02:55:29.092Z,24.55
2022-08-25T02:57:56.772Z,24.55
2022-08-25T03:00:26.464Z,24.54
2022-08-25T03:02:54.289Z,24.54
2022-08-25T03:05:22.131Z,24.54
2022-08-25T03:07:49.818Z,24.55
2022-08-25T03:10:20.845Z,24.54
2022-08-25T03:12:48.572Z,24.54
2022-08-25T03:15:17.276Z,24.54
2022-08-25T03:17:47.351Z,24.54
2022-08-25T03:20:15.474Z,24.54
2022-08-25T03:22:43.485Z,24.54
2022-08-25T03:25:29.047Z,24.53
2022-08-25T03:27:56.808Z,24.53
2022-08-25T03:30:24.540Z,24.53
2022-08-25T03:32:53.772Z,24.52
2022-08-25T03:35:21.600Z,24.53
2022-08-25T03:37:49.301Z,24.52
2022-08-25T03:40:17.609Z,24.52
2022-08-25T03:42:46.025Z,24.52
2022-08-25T03:45:14.681Z,24.51
2022-08-25T03:47:42.388Z,24.51
2022-08-25T03:50:12.410Z,24.52
2022-08-25T03:52:51.137Z,24.51
2022-08-25T03:55:21.798Z,24.51
2022-08-25T03:57:49.617Z,24.51
2022-08-25T04:00:18.587Z,24.50
2022-08-25T04:02:46.990Z,24.51
2022-08-25T04:05:16.477Z,24.51
2022-08-25T04:07:44.263Z,24.50
2022-08-25T04:10:12.465Z,24.50
2022-08-25T04:12:40.637Z,24.50
2022-08-25T04:15:09.306Z,24.50
2022-08-25T04:17:38.618Z,24.50
2022-08-25T04:20:08.111Z,24.49
2022-08-25T04:22:38.379Z,24.48
2022-08-25T04:25:07.324Z,24.50
2022-08-25T04:27:35.104Z,24.49
2022-08-25T04:30:03.017Z,24.49
2022-08-25T04:32:32.205Z,24.50
2022-08-25T04:35:00.064Z,24.48
2022-08-25T04:37:27.836Z,24.49
2022-08-25T04:39:56.935Z,24.48
2022-08-25T04:42:26.338Z,24.49
2022-08-25T04:44:54.412Z,24.48
2022-08-25T04:47:22.141Z,24.48
2022-08-25T04:49:50.003Z,24.48
2022-08-25T04:52:17.872Z,24.48
2022-08-25T04:54:45.584Z,24.47
2022-08-25T04:57:14.736Z,24.44
2022-08-25T04:59:42.462Z,24.40
2022-08-25T05:02:10.282Z,24.38
2022-08-25T05:04:46.961Z,24.34
2022-08-25T05:07:14.672Z,24.31
2022-08-25T05:09:42.512Z,24.27
2022-08-25T05:12:10.523Z,24.23
2022-08-25T05:14:41.656Z,24.21
2022-08-25T05:17:09.367Z,24.18
2022-08-25T05:19:37.238Z,24.14
2022-08-25T05:22:05.015Z,24.11
2022-08-25T05:24:32.744Z,24.10
2022-08-25T05:27:00.508Z,24.07
2022-08-25T05:29:28.226Z,24.06
2022-08-25T05:31:57.497Z,24.03
2022-08-25T05:34:25.748Z,24.00
2022-08-25T05:36:54.569Z,23.94
2022-08-25T05:39:22.542Z,23.89
2022-08-25T05:41:51.616Z,23.86
2022-08-25T05:44:21.391Z,23.84
2022-08-25T05:46:49.675Z,23.80
2022-08-25T05:49:18.852Z,23.78
2022-08-25T05:51:46.617Z,23.77
2022-08-25T05:54:14.315Z,23.74
2022-08-25T05:56:42.056Z,23.73
2022-08-25T05:59:10.495Z,23.71
2022-08-25T06:01:56.168Z,23.70
2022-08-25T06:04:25.244Z,23.70
2022-08-25T06:06:54.879Z,23.71
2022-08-25T06:09:23.155Z,23.69
2022-08-25T06:11:54.641Z,23.71
2022-08-25T06:14:23.722Z,23.71
2022-08-25T06:16:52.213Z,23.74
2022-08-25T06:19:21.229Z,23.77
2022-08-25T06:21:50.592Z,23.80
2022-08-25T06:24:18.563Z,23.82
2022-08-25T06:26:46.259Z,23.85
2022-08-25T06:29:15.018Z,23.88
2022-08-25T06:31:43.377Z,23.91
2022-08-25T06:34:11.866Z,23.94
2022-08-25T06:36:39.974Z,23.96
2022-08-25T06:39:10.613Z,23.99
2022-08-25T06:41:47.354Z,24.01
2022-08-25T06:44:15.126Z,24.03
2022-08-25T06:46:42.837Z,24.06
2022-08-25T06:49:11.556Z,24.07
2022-08-25T06:51:39.352Z,24.09
2022-08-25T06:54:07.786Z,24.11
2022-08-25T06:56:37.255Z,24.12
2022-08-25T06:59:06.291Z,24.14
2022-08-25T07:01:34.747Z,24.15
2022-08-25T07:04:04.986Z,24.17
2022-08-25T07:06:36.500Z,24.20
2022-08-25T07:09:05.387Z,24.20
2022-08-25T07:11:34.426Z,24.21
2022-08-25T07:14:04.175Z,24.24
2022-08-25T07:16:33.995Z,24.24
2022-08-25T07:19:02.553Z,24.25
2022-08-25T07:21:33.695Z,24.26
2022-08-25T07:24:06.377Z,24.27
2022-08-25T07:26:37.727Z,24.28
2022-08-25T07:29:09.012Z,24.28
2022-08-25T07:31:37.455Z,24.30
2022-08-25T07:34:22.597Z,24.31
2022-08-25T07:36:50.663Z,24.31
2022-08-25T07:39:18.626Z,24.32
2022-08-25T07:41:52.011Z,24.34
2022-08-25T07:44:22.201Z,24.35
2022-08-25T07:46:50.583Z,24.35
2022-08-25T07:49:23.095Z,24.36
2022-08-25T07:52:04.742Z,24.37
2022-08-25T07:54:35.072Z,24.37
2022-08-25T07:57:03.492Z,24.37
2022-08-25T07:59:38.941Z,24.38
2022-08-25T08:02:08.339Z,24.40
2022-08-25T08:04:37.339Z,24.39
2022-08-25T08:07:05.128Z,24.40
2022-08-25T08:09:39.803Z,24.41
2022-08-25T08:12:08.205Z,24.41
2022-08-25T08:14:39.561Z,24.41
2022-08-25T08:17:12.948Z,24.41
2022-08-25T08:19:44.871Z,24.42
2022-08-25T08:22:15.073Z,24.44
2022-08-25T08:24:54.181Z,24.44
2022-08-25T08:27:22.979Z,24.45
2022-08-25T08:29:52.287Z,24.47
2022-08-25T08:32:20.444Z,24.49
2022-08-25T08:34:51.430Z,24.49
2022-08-25T08:37:21.973Z,24.50
2022-08-25T08:39:51.289Z,24.50
2022-08-25T08:42:22.419Z,24.49
2022-08-25T08:45:09.478Z,24.51
2022-08-25T08:47:48.788Z,24.51
2022-08-25T08:50:28.047Z,24.51
2022-08-25T08:53:03.461Z,24.52
2022-08-25T08:55:34.366Z,24.53
2022-08-25T08:58:04.286Z,24.53
2022-08-25T09:00:34.425Z,24.54
2022-08-25T09:03:06.293Z,24.54
2022-08-25T09:05:42.766Z,24.55
2022-08-25T09:08:14.797Z,24.56
2022-08-25T09:10:58.576Z,24.57
2022-08-25T09:13:31.599Z,24.57
2022-08-25T09:16:34.010Z,24.57
2022-08-25T09:19:09.418Z,24.58
2022-08-25T09:21:41.752Z,24.58
2022-08-25T09:24:22.531Z,24.58
2022-08-25T09:26:55.077Z,24.58
2022-08-25T09:29:26.257Z,24.58
2022-08-25T09:31:58.437Z,24.59
2022-08-25T09:34:32.259Z,24.59
2022-08-25T09:37:00.086Z,24.59
2022-08-25T09:39:34.641Z,24.59
2022-08-25T09:42:04.400Z,24.59
2022-08-25T09:44:40.372Z,24.60
2022-08-25T09:47:15.815Z,24.60
2022-08-25T09:49:47.802Z,24.60
2022-08-25T09:52:22.211Z,24.61
2022-08-25T09:54:50.326Z,24.61
2022-08-25T09:57:34.953Z,24.63
2022-08-25T10:00:16.793Z,24.63
2022-08-25T10:02:48.371Z,24.64
2022-08-25T10:05:19.348Z,24.63
2022-08-25T10:07:52.939Z,24.64
2022-08-25T10:10:24.599Z,24.65
2022-08-25T10:12:52.444Z,24.65
2022-08-25T10:15:29.795Z,24.66
2022-08-25T10:18:21.921Z,24.66
2022-08-25T10:21:02.744Z,24.67
2022-08-25T10:23:31.876Z,24.67
2022-08-25T10:26:06.330Z,24.68
2022-08-25T10:28:39.025Z,24.69
2022-08-25T10:31:11.211Z,24.70
2022-08-25T10:33:45.964Z,24.69
2022-08-25T10:36:21.451Z,24.71
2022-08-25T10:38:57.052Z,24.71
2022-08-25T10:41:35.845Z,24.72
2022-08-25T10:44:28.687Z,24.72
2022-08-25T10:47:06.704Z,24.73
2022-08-25T10:49:42.416Z,24.73
2022-08-25T10:52:15.447Z,24.74
2022-08-25T10:54:46.675Z,24.73
2022-08-25T10:57:21.646Z,24.74
2022-08-25T10:59:53.414Z,24.75
2022-08-25T11:02:38.319Z,24.75
2022-08-25T11:05:12.629Z,24.76
2022-08-25T11:07:43.458Z,24.76
2022-08-25T11:10:13.360Z,24.77
2022-08-25T11:12:46.084Z,24.78
2022-08-25T11:15:24.646Z,24.78
2022-08-25T11:17:56.002Z,24.78
2022-08-25T11:20:33.679Z,24.80
2022-08-25T11:23:08.026Z,24.80
2022-08-25T11:25:38.280Z,24.80
2022-08-25T11:28:10.967Z,24.80
2022-08-25T11:30:40.366Z,24.80
2022-08-25T11:33:10.824Z,24.81
2022-08-25T11:35:43.426Z,24.81
2022-08-25T11:38:24.265Z,24.81
2022-08-25T11:41:00.355Z,24.81
2022-08-25T11:43:40.586Z,24.81
2022-08-25T11:46:17.621Z,24.81
2022-08-25T11:48:56.307Z,24.81
2022-08-25T11:51:33.724Z,24.83
2022-08-25T11:54:17.763Z,24.82
2022-08-25T11:56:53.061Z,24.83
2022-08-25T11:59:35.736Z,24.84
2022-08-25T12:02:03.576Z,24.84
2022-08-25T12:04:44.239Z,24.84
2022-08-25T12:07:28.109Z,24.85
2022-08-25T12:10:14.003Z,24.85
2022-08-25T12:12:57.337Z,24.84
2022-08-25T12:15:26.898Z,24.84
2022-08-25T12:18:09.898Z,24.84
2022-08-25T12:20:57.376Z,24.84
2022-08-25T12:23:30.282Z,24.84
2022-08-25T12:25:59.673Z,24.84
2022-08-25T12:28:42.669Z,24.86
2022-08-25T12:31:18.788Z,24.85
2022-08-25T12:33:53.480Z,24.86
2022-08-25T12:36:28.842Z,24.86
2022-08-25T12:39:09.084Z,24.88
2022-08-25T12:41:37.211Z,24.86
2022-08-25T12:44:16.800Z,24.86
2022-08-25T12:46:48.336Z,24.88
2022-08-25T12:49:30.951Z,24.87
2022-08-25T12:52:02.127Z,24.87
2022-08-25T12:54:43.574Z,24.88
2022-08-25T12:57:25.019Z,24.86
2022-08-25T12:59:58.747Z,24.88
2022-08-25T13:02:52.052Z,24.88
2022-08-25T13:05:43.114Z,24.89
2022-08-25T13:08:26.824Z,24.87
2022-08-25T13:10:57.152Z,24.89
2022-08-25T13:13:32.791Z,24.89
2022-08-25T13:16:01.645Z,24.88
2022-08-25T13:18:31.507Z,24.88
2022-08-25T13:21:06.779Z,24.89
2022-08-25T13:23:36.921Z,24.89
2022-08-25T13:26:10.522Z,24.89
2022-08-25T13:28:40.858Z,24.90
2022-08-25T13:31:17.391Z,24.89
2022-08-25T13:33:53.457Z,24.90
2022-08-25T13:36:43.453Z,24.91
2022-08-25T13:39:20.024Z,24.90
2022-08-25T13:42:14.651Z,24.91
2022-08-25T13:44:52.287Z,24.91
2022-08-25T13:47:43.340Z,24.91
2022-08-25T13:50:18.192Z,24.92
2022-08-25T13:52:49.834Z,24.93
2022-08-25T13:55:27.341Z,24.92
2022-08-25T13:57:58.274Z,24.93
2022-08-25T14:00:31.773Z,24.94
2022-08-25T14:03:00.574Z,24.95
2022-08-25T14:05:40.426Z,24.94
2022-08-25T14:08:28.418Z,24.94
2022-08-25T14:11:03.664Z,24.96
2022-08-25T14:13:34.885Z,24.96
2022-08-25T14:16:09.997Z,24.97
2022-08-25T14:18:38.035Z,24.97
2022-08-25T14:21:10.854Z,24.97
2022-08-25T14:23:39.816Z,24.97
2022-08-25T14:26:07.766Z,24.97
2022-08-25T14:28:39.848Z,24.98
2022-08-25T14:31:09.362Z,24.97
2022-08-25T14:33:38.707Z,24.96
2022-08-25T14:36:08.224Z,24.97
2022-08-25T14:38:38.985Z,24.97
2022-08-25T14:43:38.479Z,24.97
2022-08-25T14:46:11.029Z,24.97
2022-08-25T14:48:44.828Z,24.97
2022-08-25T14:51:13.186Z,24.98
2022-08-25T14:53:41.371Z,24.99
2022-08-25T14:56:10.293Z,24.99
2022-08-25T14:58:48.513Z,24.99
2022-08-25T15:01:28.745Z,25.00
2022-08-25T15:03:59.180Z,25.00
2022-08-25T15:06:27.751Z,24.99
2022-08-25T15:09:11.372Z,24.99
2022-08-25T15:11:41.747Z,25.01
2022-08-25T15:14:12.198Z,25.01
2022-08-25T15:16:42.459Z,25.02
2022-08-25T15:19:15.936Z,25.03
2022-08-25T15:21:47.895Z,25.02
2022-08-25T15:24:17.254Z,25.09
2022-08-25T15:29:22.245Z,25.20
2022-08-25T15:31:50.827Z,25.24
2022-08-25T15:34:18.614Z,25.30
2022-08-25T15:36:47.022Z,25.31
2022-08-25T15:39:15.067Z,25.33
2022-08-25T15:41:46.351Z,25.35
2022-08-25T15:44:17.431Z,25.37
2022-08-25T15:46:50.148Z,25.39
2022-08-25T15:49:20.757Z,25.41
2022-08-25T15:51:51.685Z,25.45
2022-08-25T15:54:20.196Z,25.50
2022-08-25T15:56:47.952Z,25.48
2022-08-25T15:59:16.026Z,25.56
2022-08-25T16:01:44.265Z,25.57
2022-08-25T16:04:14.830Z,25.57
2022-08-25T16:06:42.701Z,25.56
2022-08-25T16:09:10.462Z,25.55
2022-08-25T16:11:38.971Z,25.55
2022-08-25T16:14:07.151Z,25.59
2022-08-25T16:16:35.222Z,25.58
2022-08-25T16:19:03.577Z,25.56
2022-08-25T16:21:35.008Z,25.55
2022-08-25T16:24:07.398Z,25.57
2022-08-25T16:26:36.516Z,25.57
2022-08-25T16:29:06.482Z,25.57
2022-08-25T16:31:34.487Z,25.57
2022-08-25T16:34:02.406Z,25.57
2022-08-25T16:36:30.224Z,25.56
2022-08-25T16:39:00.978Z,25.54
2022-08-25T16:41:34.011Z,25.55
2022-08-25T16:44:02.265Z,25.56
2022-08-25T16:46:31.257Z,25.59
2022-08-25T16:49:01.104Z,25.59
2022-08-25T16:51:29.560Z,25.64
2022-08-25T16:54:15.384Z,25.61
2022-08-25T16:56:55.057Z,25.59
2022-08-25T16:59:23.629Z,25.58
2022-08-25T17:01:52.405Z,25.58
2022-08-25T17:04:20.637Z,25.56
2022-08-25T17:06:49.573Z,25.55
2022-08-25T17:09:23.844Z,25.55
2022-08-25T17:11:56.846Z,25.55
2022-08-25T17:14:24.696Z,25.55
2022-08-25T17:16:54.728Z,25.54
2022-08-25T17:19:23.955Z,25.56
2022-08-25T17:21:52.384Z,25.55
2022-08-25T17:24:20.882Z,25.56
2022-08-25T17:26:50.131Z,25.56
2022-08-25T17:29:19.395Z,25.56
2022-08-25T17:31:48.348Z,25.56
2022-08-25T17:34:20.337Z,25.53
2022-08-25T17:36:51.352Z,25.50
2022-08-25T17:39:22.087Z,25.50
2022-08-25T17:41:50.613Z,25.50
2022-08-25T17:44:19.881Z,25.49
2022-08-25T17:46:48.066Z,25.49
2022-08-25T17:49:16.053Z,25.48
2022-08-25T17:51:43.946Z,25.48
2022-08-25T17:54:13.090Z,25.48
2022-08-25T17:56:41.116Z,25.47
2022-08-25T17:59:08.992Z,25.48
2022-08-25T18:01:42.218Z,25.50
2022-08-25T18:04:17.341Z,25.48
2022-08-25T18:06:45.879Z,25.45
2022-08-25T18:09:14.215Z,25.45
2022-08-25T18:11:42.413Z,25.44
2022-08-25T18:14:11.366Z,25.45
2022-08-25T18:16:40.832Z,25.46
2022-08-25T18:19:10.795Z,25.46
2022-08-25T18:21:38.720Z,25.47
2022-08-25T18:24:06.766Z,25.46
2022-08-25T18:26:34.692Z,25.49
2022-08-25T18:29:02.576Z,25.46
2022-08-25T18:31:30.411Z,25.42
2022-08-25T18:33:59.498Z,25.38
2022-08-25T18:36:27.240Z,25.35
2022-08-25T18:39:13.466Z,25.32
2022-08-25T18:41:42.902Z,25.31
2022-08-25T18:44:15.678Z,25.28
2022-08-25T18:46:45.515Z,25.27
2022-08-25T18:49:17.192Z,25.25
2022-08-25T18:51:45.746Z,25.25
2022-08-25T18:54:23.120Z,25.23
2022-08-25T18:56:51.834Z,25.23
2022-08-25T18:59:19.549Z,25.22
2022-08-25T19:01:47.465Z,25.23
2022-08-25T19:04:16.874Z,25.22
2022-08-25T19:06:45.176Z,25.22
2022-08-25T19:09:12.969Z,25.21
2022-08-25T19:11:40.716Z,25.21
2022-08-25T19:14:12.421Z,25.19
2022-08-25T19:16:47.165Z,25.20
2022-08-25T19:19:17.659Z,25.21
2022-08-25T19:21:48.329Z,25.20
2022-08-25T19:24:19.268Z,25.18
2022-08-25T19:26:47.316Z,25.18
2022-08-25T19:29:18.298Z,25.18
2022-08-25T19:31:46.810Z,25.18
2022-08-25T19:34:18.723Z,25.18
2022-08-25T19:36:50.973Z,25.18
2022-08-25T19:39:18.783Z,25.17
2022-08-25T19:41:46.918Z,25.17
2022-08-25T19:44:16.403Z,25.16
2022-08-25T19:46:45.218Z,25.17
2022-08-25T19:49:15.366Z,25.17
2022-08-25T19:51:44.745Z,25.17
2022-08-25T19:54:14.908Z,25.16
2022-08-25T19:56:54.898Z,25.17
2022-08-25T19:59:25.368Z,25.17
2022-08-25T20:01:53.740Z,25.18
2022-08-25T20:04:24.530Z,25.18
2022-08-25T20:06:52.700Z,25.18
2022-08-25T20:09:39.355Z,25.18
2022-08-25T20:12:10.292Z,25.17
2022-08-25T20:14:38.333Z,25.18
2022-08-25T20:17:23.910Z,25.15
2022-08-25T20:19:55.453Z,25.17
2022-08-25T20:22:26.104Z,25.16
2022-08-25T20:24:57.526Z,25.15
2022-08-25T20:27:34.054Z,25.15
2022-08-25T20:30:03.234Z,25.14
2022-08-25T20:32:32.380Z,25.13
2022-08-25T20:35:00.383Z,25.13
2022-08-25T20:37:28.196Z,25.12
2022-08-25T20:39:57.344Z,25.13
2022-08-25T20:42:25.142Z,25.12
2022-08-25T20:44:54.697Z,25.11
2022-08-25T20:47:22.802Z,25.11
2022-08-25T20:49:50.559Z,25.10
2022-08-25T20:52:19.509Z,25.11
2022-08-25T20:54:50.413Z,25.09
2022-08-25T20:57:25.773Z,25.10
2022-08-25T20:59:54.732Z,25.10
2022-08-25T21:02:22.985Z,25.09
2022-08-25T21:04:50.791Z,25.08
2022-08-25T21:07:18.549Z,25.09
2022-08-25T21:09:46.526Z,25.09
2022-08-25T21:12:15.251Z,25.08
2022-08-25T21:14:44.865Z,25.07
2022-08-25T21:17:12.994Z,25.07
2022-08-25T21:19:41.878Z,25.07
2022-08-25T21:22:09.803Z,25.07
2022-08-25T21:24:39.077Z,25.05
2022-08-25T21:27:07.207Z,25.05
2022-08-25T21:29:34.967Z,25.06
2022-08-25T21:32:04.444Z,25.06
2022-08-25T21:34:32.212Z,25.06
2022-08-25T21:37:00.393Z,25.05
2022-08-25T21:39:32.080Z,25.05
2022-08-25T21:42:00.593Z,25.05
2022-08-25T21:44:28.473Z,25.05
2022-08-25T21:46:57.700Z,25.04
2022-08-25T21:49:26.753Z,25.05
2022-08-25T21:52:03.331Z,25.04
2022-08-25T21:54:33.687Z,25.03
2022-08-25T21:57:03.129Z,25.04
2022-08-25T21:59:32.322Z,25.03
2022-08-25T22:02:01.118Z,25.04
2022-08-25T22:04:30.815Z,25.03
2022-08-25T22:06:59.260Z,25.04
2022-08-25T22:09:28.252Z,25.02
2022-08-25T22:11:56.301Z,25.04
2022-08-25T22:14:26.127Z,25.02
2022-08-25T22:16:54.590Z,25.03
2022-08-25T22:19:23.300Z,25.02
2022-08-25T22:21:54.256Z,25.02
2022-08-25T22:24:22.201Z,25.02
2022-08-25T22:26:50.348Z,25.02
2022-08-25T22:29:24.787Z,25.01
2022-08-25T22:31:53.099Z,25.01
2022-08-25T22:34:31.665Z,25.02
2022-08-25T22:37:01.591Z,25.01
2022-08-25T22:39:29.808Z,25.01
2022-08-25T22:41:57.608Z,25.02
2022-08-25T22:44:26.202Z,25.01
2022-08-25T22:46:54.152Z,25.00
2022-08-25T22:49:22.060Z,25.00
2022-08-25T22:51:49.957Z,25.00
2022-08-25T22:54:20.029Z,25.01
2022-08-25T22:56:47.751Z,25.01
2022-08-25T22:59:15.491Z,25.01
2022-08-25T23:01:44.923Z,25.00
2022-08-25T23:04:13.668Z,25.01
2022-08-25T23:06:41.463Z,25.00
2022-08-25T23:09:10.800Z,25.00
2022-08-25T23:11:40.101Z,25.00
2022-08-25T23:14:10.349Z,24.99
2022-08-25T23:16:48.462Z,25.00
2022-08-25T23:19:17.864Z,24.98
2022-08-25T23:22:03.639Z,24.98
2022-08-25T23:24:32.398Z,24.99
2022-08-25T23:27:02.938Z,24.99
2022-08-25T23:29:32.454Z,24.98
2022-08-25T23:32:00.177Z,24.98
2022-08-25T23:34:28.789Z,24.97
2022-08-25T23:36:57.300Z,24.98
2022-08-25T23:39:25.426Z,24.98
2022-08-25T23:41:53.200Z,24.98
2022-08-25T23:44:23.206Z,24.97
2022-08-25T23:46:53.430Z,24.97
2022-08-25T23:49:22.549Z,24.97
2022-08-25T23:51:52.904Z,24.97
2022-08-25T23:54:21.451Z,24.96
2022-08-25T23:56:52.313Z,24.96
2022-08-25T23:59:24.827Z,24.96
